Airfield :
LOGIN :

Register | Disclaimer

   EN    FR    IT 

 










Legend :    VFR   Marginal VFR   IFR   Intensive IFR   Very Intensive IFR
Visi :
Ceiling :
>= 8 km
>= 3000ft
5 to 8 km
1000 to 3000 ft
1500m to 5 km
500 to 1000 ft
800 to 1500m
200 to 500 ft
< 800m
< 200 ft
Symbols :   Thunderstorms  Fog  Heavy snow  Heavy precipitations  Wind > 20 kt
SIGMETs :     Misc.  Thunderstorms  Icing  Turbulence  Mountain Waves  Volcanic Ashes







- Airport Elevation : 106 ft
- IATA code : XDA
- Download approach charts


LFBY - Dax Seyresse

CURRENT METAR :
  • 250330Z AUTO 10005KT 060V140 9999 // SCT042/// SCT049/// ///CB 11/10 Q1001

EXPIRED METARs :
  • 250300Z AUTO VRB02KT 5000 // FEW007/// SCT013/// OVC042/// ///CB 11/10 Q1002
  • 250230Z AUTO 32003KT 270V360 1600 // BKN008/// BKN025/// BKN031/// ///CB 11/10 Q1002
  • 250200Z AUTO 32004KT 280V350 2300 // FEW010/// SCT026/// BKN046/// ///CB 11/10 Q1001
  • 250130Z AUTO VRB03KT 4700 // FEW048/// ///CB 11/10 Q1001
  • 250100Z AUTO 30004KT 270V340 2200 // FEW049/// ///TCU 12/10 Q1001

Expired Forecast.
No reported NOTAMs for that airfield.
3 SIGMETs reported for the Bordeaux FIR (LFBB) :
 
Severe mountain waves
LFBB SIGMET 2 VALID 250300/250700 LFPW
LFBB BORDEAUX FIR/UIR SEV MTW FCST WI N4245 E00230 - N4215 E00230 - N4230 E00045 - N4300 E00100 - N4245 E00230 SFC/FL370 STNR WKN=
Severe turbulence
LFBB SIGMET 11 VALID 242300/250300 LFPW
LFBB BORDEAUX FIR/UIR SEV TURB FCST WI N4630 E00300 - N4315 E00230 - N4330 E00130 - N4630 E00300 SFC/FL080 STNR NC=
Severe turbulence
LFBB SIGMET 1 VALID 250300/250700 LFPW
LFBB BORDEAUX FIR/UIR SEV TURB FCST WI N4630 E00300 - N4315 E00230 - N4330 E00130 - N4630 E00300 SFC/FL080 STNR WKN=



MET'MAP, your aeronautical weather chart ! - Copyright ORBIFLY December 2007 - Disclaimer

ORBIFLY MET'MAP TEAM :

Programming & Development : Alexandra Zaïnal
Concept & Development : Baudouin d'Aumeries
Co-Development & Prog : Marc-Olivier Méhu
Technical & hardware support : Manuel Goepfert

Contact : metmap@orbifly.com




SOURCES & CREDITS :

   NOAA